Time;durP1;ratioP1;P1;durP2;ratioP2;P2;SDS_P1;SDS_P2;PMS_P1;PMS_P2;Temp;Humidity;BMP_temperature;BMP_pressure;BME280_temperature;BME280_humidity;BME280_pressure;Samples;Min_cycle;Max_cycle;Signal;HPM_P1;HPM_P2
2023/03/08 00:00:35;;;;;;;9.03;8.83;;;4.60;99.90;;;;;;5045096;28;20260;-81
2023/03/08 00:03:04;;;;;;;8.80;8.60;;;4.60;99.90;;;;;;5067288;28;20277;-83
2023/03/08 00:05:33;;;;;;;8.80;8.60;;;4.60;99.90;;;;;;5039370;28;20263;-81
2023/03/08 00:08:05;;;;;;;9.00;8.80;;;4.60;99.90;;;;;;5044302;28;20231;-81
2023/03/08 00:10:33;;;;;;;8.97;8.77;;;4.70;99.90;;;;;;5042393;28;20238;-82
2023/03/08 00:13:01;;;;;;;9.30;9.00;;;4.70;99.90;;;;;;5022807;28;20234;-80
2023/03/08 00:15:31;;;;;;;9.50;9.20;;;4.70;99.90;;;;;;5038673;28;20239;-80
2023/03/08 00:18:01;;;;;;;9.13;8.83;;;4.70;99.90;;;;;;5043234;28;20326;-80
2023/03/08 00:20:30;;;;;;;9.50;9.20;;;4.70;99.90;;;;;;5043410;28;20231;-80
2023/03/08 00:22:59;;;;;;;9.43;9.13;;;4.70;99.90;;;;;;5043962;28;20347;-80
2023/03/08 00:25:30;;;;;;;9.20;8.90;;;4.70;99.90;;;;;;5042184;28;20286;-80
2023/03/08 00:27:58;;;;;;;9.43;9.13;;;4.70;99.90;;;;;;5053371;28;20235;-80
2023/03/08 00:30:28;;;;;;;9.33;9.03;;;4.80;99.90;;;;;;5058471;28;20227;-79
2023/03/08 00:32:57;;;;;;;9.27;8.97;;;4.80;99.90;;;;;;5055180;28;20327;-80
2023/03/08 00:35:26;;;;;;;9.20;8.90;;;4.80;99.90;;;;;;5049330;28;20247;-80
2023/03/08 00:37:56;;;;;;;9.30;9.00;;;4.70;99.90;;;;;;5047045;28;21026;-80
2023/03/08 00:40:25;;;;;;;8.97;8.77;;;4.80;99.90;;;;;;5048071;28;20234;-80
2023/03/08 00:42:57;;;;;;;8.93;8.73;;;4.80;99.90;;;;;;5047430;28;20244;-80
2023/03/08 00:45:25;;;;;;;9.10;8.80;;;4.80;99.90;;;;;;5044699;28;20270;-80
2023/03/08 00:47:53;;;;;;;8.87;8.67;;;4.80;99.90;;;;;;5043899;28;20227;-80
2023/03/08 00:50:23;;;;;;;8.87;8.67;;;4.80;99.90;;;;;;5044013;28;20235;-81
2023/03/08 00:52:52;;;;;;;8.90;8.70;;;4.80;99.90;;;;;;5043155;28;20234;-80
2023/03/08 00:55:22;;;;;;;8.70;8.50;;;4.80;99.90;;;;;;5043261;28;20299;-80
2023/03/08 00:57:51;;;;;;;8.70;8.50;;;4.80;99.90;;;;;;5042912;28;20255;-80
2023/03/08 01:00:24;;;;;;;9.00;8.80;;;4.80;99.90;;;;;;5043322;28;20705;-80
2023/03/08 01:02:51;;;;;;;9.30;9.00;;;4.80;99.90;;;;;;5043852;28;20236;-80
2023/03/08 01:05:20;;;;;;;9.17;8.87;;;4.80;99.90;;;;;;5041693;28;20334;-80
2023/03/08 01:07:49;;;;;;;9.40;9.10;;;4.90;99.90;;;;;;5040610;28;20266;-81
2023/03/08 01:10:17;;;;;;;9.50;9.20;;;4.80;99.90;;;;;;5041500;28;20298;-80
2023/03/08 01:12:49;;;;;;;9.60;9.30;;;4.90;99.90;;;;;;5041414;28;20231;-80
2023/03/08 01:15:18;;;;;;;9.30;9.00;;;4.90;99.90;;;;;;5042698;28;20246;-80
2023/03/08 01:17:49;;;;;;;9.50;9.20;;;4.90;99.90;;;;;;5041863;28;20235;-80
2023/03/08 01:20:17;;;;;;;9.13;8.83;;;4.90;99.90;;;;;;5044407;28;20238;-80
2023/03/08 01:22:46;;;;;;;9.30;9.00;;;4.90;99.90;;;;;;5045535;28;20223;-80
2023/03/08 01:25:16;;;;;;;9.33;9.03;;;4.90;99.90;;;;;;5054672;23;20324;-79
2023/03/08 01:27:46;;;;;;;9.37;9.07;;;4.90;99.90;;;;;;5025305;28;20254;-79
2023/03/08 01:30:24;;;;;;;9.60;9.30;;;4.90;99.90;;;;;;5024978;28;20216;-80
2023/03/08 01:33:04;;;;;;;9.30;9.00;;;4.90;99.90;;;;;;5017835;28;20232;-80
2023/03/08 01:35:35;;;;;;;9.40;9.10;;;4.90;99.90;;;;;;5018401;28;20239;-82
2023/03/08 01:38:02;;;;;;;9.50;9.20;;;4.90;99.90;;;;;;5027947;28;20296;-80
2023/03/08 01:40:31;;;;;;;9.30;9.00;;;4.90;99.90;;;;;;5026177;28;20224;-79
2023/03/08 01:43:00;;;;;;;9.37;9.07;;;4.90;99.90;;;;;;5024463;28;20224;-80
2023/03/08 01:46:12;;;;;;;9.30;9.00;;;4.90;99.90;;;;;;5024441;28;20271;-80
2023/03/08 01:48:53;;;;;;;9.17;8.87;;;4.90;99.90;;;;;;5024608;28;20236;-79
2023/03/08 01:51:32;;;;;;;9.30;9.00;;;4.90;99.90;;;;;;5031171;28;20227;-80
2023/03/08 01:54:09;;;;;;;9.43;9.13;;;4.90;99.90;;;;;;5030802;28;20224;-80
2023/03/08 01:56:38;;;;;;;9.57;9.27;;;4.90;99.90;;;;;;5028174;28;20236;-80
2023/03/08 01:59:08;;;;;;;9.90;9.60;;;4.90;99.90;;;;;;5018718;28;20327;-81
2023/03/08 02:01:37;;;;;;;9.40;9.10;;;4.90;99.90;;;;;;5026149;28;20299;-81
2023/03/08 02:04:17;;;;;;;9.30;9.00;;;4.90;99.90;;;;;;5009333;28;20233;-81
2023/03/08 02:06:46;;;;;;;9.50;9.20;;;4.90;99.90;;;;;;5025470;28;20232;-81
2023/03/08 02:09:14;;;;;;;9.53;9.23;;;4.90;99.90;;;;;;5025168;28;20232;-81
2023/03/08 02:11:46;;;;;;;9.30;9.00;;;4.90;99.90;;;;;;5024657;28;20224;-81
2023/03/08 02:14:22;;;;;;;9.40;9.10;;;4.80;99.90;;;;;;5024760;28;20286;-81
2023/03/08 02:16:54;;;;;;;9.50;9.20;;;4.80;99.90;;;;;;5008260;28;20283;-80
2023/03/08 02:19:30;;;;;;;9.30;9.00;;;4.80;99.90;;;;;;5024410;28;20240;-80
2023/03/08 02:22:00;;;;;;;9.40;9.10;;;4.80;99.90;;;;;;5023275;28;20238;-81
2023/03/08 02:24:49;;;;;;;9.20;8.90;;;4.80;99.90;;;;;;5022130;28;20263;-80
2023/03/08 02:27:25;;;;;;;9.20;8.90;;;4.70;99.90;;;;;;5040135;28;20266;-79
2023/03/08 02:30:06;;;;;;;9.23;8.93;;;4.70;99.90;;;;;;5038462;28;20247;-79
2023/03/08 02:32:33;;;;;;;9.30;9.00;;;4.70;99.90;;;;;;5041136;28;20220;-80
2023/03/08 02:35:03;;;;;;;9.40;9.10;;;4.70;99.90;;;;;;5026661;28;20248;-80
2023/03/08 02:40:30;;;;;;;8.80;8.60;;;4.60;99.90;;;;;;5018991;28;20228;-81
2023/03/08 02:42:59;;;;;;;8.97;8.77;;;4.70;99.90;;;;;;5027162;28;20263;-81
2023/03/08 02:45:27;;;;;;;8.90;8.70;;;4.60;99.90;;;;;;5025074;28;20256;-81
2023/03/08 02:47:58;;;;;;;9.20;8.90;;;4.60;99.90;;;;;;5032000;28;20260;-78
2023/03/08 02:50:26;;;;;;;9.30;9.00;;;4.60;99.90;;;;;;5037018;28;20306;-80
2023/03/08 02:52:54;;;;;;;9.03;8.80;;;4.50;99.90;;;;;;5023094;28;20306;-80
2023/03/08 02:55:43;;;;;;;9.40;9.10;;;4.50;99.90;;;;;;5023079;28;20236;-80
2023/03/08 02:58:19;;;;;;;9.30;9.00;;;4.50;99.90;;;;;;5016309;28;20239;-80
2023/03/08 03:00:48;;;;;;;9.00;8.80;;;4.40;99.90;;;;;;5037804;28;20291;-80
2023/03/08 03:03:18;;;;;;;9.30;9.00;;;4.40;99.90;;;;;;5027521;28;20266;-81
2023/03/08 03:05:49;;;;;;;8.90;8.70;;;4.30;99.90;;;;;;5025204;28;20729;-80
2023/03/08 03:11:23;;;;;;;9.30;9.00;;;4.30;99.90;;;;;;5020463;28;20279;-80
2023/03/08 03:13:59;;;;;;;9.30;9.00;;;4.20;99.90;;;;;;5020438;28;20260;-80
2023/03/08 03:16:29;;;;;;;9.30;9.00;;;4.20;99.90;;;;;;5016830;28;20232;-81
2023/03/08 03:18:59;;;;;;;9.30;9.00;;;4.20;99.90;;;;;;5022287;28;20256;-81
2023/03/08 03:21:28;;;;;;;8.97;8.77;;;4.10;99.90;;;;;;5022749;28;20282;-81
2023/03/08 03:23:59;;;;;;;8.97;8.77;;;4.10;99.90;;;;;;5019688;28;20236;-81
2023/03/08 03:26:37;;;;;;;9.30;9.00;;;4.10;99.90;;;;;;5009315;28;20627;-81
2023/03/08 03:29:07;;;;;;;9.53;9.23;;;4.10;99.90;;;;;;5015012;28;20235;-81
2023/03/08 03:31:43;;;;;;;9.33;9.03;;;4.00;99.90;;;;;;5015770;28;20288;-81
2023/03/08 03:34:13;;;;;;;9.53;9.23;;;4.00;99.90;;;;;;5009325;28;20223;-81
2023/03/08 03:36:43;;;;;;;8.87;8.67;;;3.90;99.90;;;;;;5023259;28;20652;-81
2023/03/08 03:39:13;;;;;;;8.83;8.63;;;3.80;99.90;;;;;;5023081;28;20291;-81
2023/03/08 03:41:53;;;;;;;8.90;8.70;;;3.80;99.90;;;;;;5022646;28;20295;-80
2023/03/08 03:44:20;;;;;;;8.80;8.60;;;3.70;99.90;;;;;;5022071;28;20228;-81
2023/03/08 03:46:51;;;;;;;9.07;8.80;;;3.60;99.90;;;;;;5022375;28;20259;-81
2023/03/08 03:49:19;;;;;;;8.80;8.60;;;3.60;99.90;;;;;;5022903;28;20232;-81
2023/03/08 03:51:50;;;;;;;9.03;8.80;;;3.60;99.90;;;;;;5021995;28;20250;-81
2023/03/08 03:54:18;;;;;;;9.10;8.83;;;3.50;99.90;;;;;;5015686;28;20303;-81
2023/03/08 03:56:50;;;;;;;8.90;8.70;;;3.40;99.90;;;;;;5024865;28;20307;-81
2023/03/08 03:59:18;;;;;;;8.80;8.60;;;3.40;99.90;;;;;;5009290;28;20312;-81
2023/03/08 04:01:49;;;;;;;8.90;8.70;;;3.30;99.90;;;;;;5022009;28;20235;-81
2023/03/08 04:04:18;;;;;;;8.70;8.50;;;3.20;99.90;;;;;;5021582;28;20655;-80
2023/03/08 04:06:46;;;;;;;8.67;8.47;;;3.20;99.90;;;;;;5021077;28;20323;-81
2023/03/08 04:09:17;;;;;;;8.57;8.37;;;3.20;99.90;;;;;;5021827;28;20291;-81
2023/03/08 04:11:55;;;;;;;8.50;8.30;;;3.20;99.90;;;;;;5013386;28;20291;-81
2023/03/08 04:14:24;;;;;;;8.60;8.40;;;3.20;99.90;;;;;;5021484;28;20224;-80
2023/03/08 04:16:55;;;;;;;8.87;8.67;;;3.20;99.90;;;;;;5013840;28;20231;-81
2023/03/08 04:19:25;;;;;;;9.10;8.90;;;3.10;99.90;;;;;;5022887;28;20232;-80
2023/03/08 04:22:03;;;;;;;8.40;8.20;;;3.10;99.90;;;;;;5020059;28;20251;-82
2023/03/08 04:24:31;;;;;;;8.50;8.30;;;3.10;99.90;;;;;;5002457;28;20336;-81
2023/03/08 04:27:02;;;;;;;8.80;8.60;;;3.00;99.90;;;;;;5020351;28;20240;-80
2023/03/08 04:29:30;;;;;;;8.53;8.33;;;3.00;99.90;;;;;;5020188;28;20235;-80
2023/03/08 04:32:01;;;;;;;8.60;8.40;;;3.00;99.90;;;;;;5013640;28;20294;-81
2023/03/08 04:34:29;;;;;;;8.60;8.40;;;3.00;99.90;;;;;;5021038;28;20224;-81
2023/03/08 04:36:57;;;;;;;8.90;8.70;;;3.00;99.90;;;;;;5025480;28;20232;-80
2023/03/08 04:39:27;;;;;;;8.90;8.70;;;2.90;99.90;;;;;;5023635;28;20255;-81
2023/03/08 04:41:56;;;;;;;8.80;8.60;;;2.90;99.90;;;;;;5022606;28;20231;-80
2023/03/08 04:44:36;;;;;;;8.93;8.73;;;2.80;99.90;;;;;;5019456;28;20220;-81
2023/03/08 04:47:12;;;;;;;9.10;8.83;;;2.80;99.90;;;;;;5023314;28;20220;-81
2023/03/08 04:49:47;;;;;;;9.30;9.00;;;2.80;99.90;;;;;;5031683;28;20271;-81
2023/03/08 04:52:21;;;;;;;8.80;8.60;;;2.80;99.90;;;;;;5031529;28;20254;-81
2023/03/08 04:54:49;;;;;;;8.80;8.60;;;2.80;99.90;;;;;;5032501;28;20231;-80
2023/03/08 04:57:21;;;;;;;8.90;8.70;;;2.80;99.90;;;;;;5027897;28;20713;-81
2023/03/08 04:59:57;;;;;;;8.90;8.70;;;2.90;99.90;;;;;;5026538;28;20236;-81
2023/03/08 05:02:27;;;;;;;9.17;8.87;;;2.90;99.90;;;;;;5020832;28;20228;-81
2023/03/08 05:04:56;;;;;;;9.40;9.10;;;2.90;99.90;;;;;;5027095;28;20293;-81
2023/03/08 05:07:26;;;;;;;9.30;9.00;;;2.90;99.90;;;;;;5023929;28;20240;-81
2023/03/08 05:09:55;;;;;;;9.37;9.07;;;2.90;99.90;;;;;;5029464;28;20232;-81
2023/03/08 05:12:24;;;;;;;8.97;8.77;;;2.90;99.90;;;;;;5028584;28;20263;-81
2023/03/08 05:15:02;;;;;;;9.00;8.80;;;2.90;99.90;;;;;;5027246;28;20235;-81
2023/03/08 05:17:32;;;;;;;9.43;9.13;;;2.90;99.90;;;;;;5026546;28;20231;-81
2023/03/08 05:20:02;;;;;;;9.40;9.10;;;2.90;99.90;;;;;;5025433;28;20343;-80
2023/03/08 05:22:31;;;;;;;9.23;8.93;;;2.90;99.90;;;;;;5026412;28;20243;-81
2023/03/08 05:25:00;;;;;;;8.90;8.70;;;2.90;99.90;;;;;;5026910;28;20251;-81
2023/03/08 05:27:31;;;;;;;9.30;9.00;;;2.90;99.90;;;;;;5024968;28;20322;-80
2023/03/08 05:30:08;;;;;;;9.00;8.80;;;2.80;99.90;;;;;;5023001;28;20311;-81
2023/03/08 05:32:38;;;;;;;9.63;9.33;;;2.90;99.90;;;;;;5024100;28;20220;-80
2023/03/08 05:35:08;;;;;;;9.70;9.40;;;2.90;99.90;;;;;;5023699;28;20236;-81
2023/03/08 05:37:36;;;;;;;10.00;9.70;;;2.90;99.90;;;;;;5036283;28;20204;-80
2023/03/08 05:40:06;;;;;;;9.83;9.53;;;2.90;99.90;;;;;;5036748;28;20296;-81
2023/03/08 05:42:35;;;;;;;9.90;9.60;;;2.90;99.90;;;;;;5022045;28;20348;-81
2023/03/08 05:45:13;;;;;;;9.73;9.43;;;3.00;99.90;;;;;;5029365;28;20302;-81
2023/03/08 05:47:44;;;;;;;10.00;9.70;;;2.90;99.90;;;;;;5035955;28;20223;-80
2023/03/08 05:50:13;;;;;;;9.80;9.50;;;3.00;99.90;;;;;;5037803;28;20263;-80
2023/03/08 05:52:42;;;;;;;10.10;9.80;;;3.00;99.90;;;;;;5033175;28;20229;-79
2023/03/08 05:55:12;;;;;;;10.30;10.00;;;3.00;99.90;;;;;;5041639;28;20236;-79
2023/03/08 05:57:42;;;;;;;9.80;9.50;;;3.00;99.90;;;;;;5041531;28;20209;-80
2023/03/08 06:00:21;;;;;;;9.90;9.60;;;3.00;99.90;;;;;;5041915;28;20227;-79
2023/03/08 06:02:52;;;;;;;9.70;9.40;;;3.00;99.90;;;;;;5041876;28;20223;-79
2023/03/08 06:05:22;;;;;;;9.60;9.30;;;3.10;99.90;;;;;;5033226;28;20304;-79
2023/03/08 06:07:52;;;;;;;9.73;9.43;;;3.20;99.90;;;;;;5041305;28;20226;-79
2023/03/08 06:10:29;;;;;;;9.57;9.27;;;3.20;99.90;;;;;;5041763;28;20285;-79
2023/03/08 06:13:02;;;;;;;9.60;9.30;;;3.30;99.90;;;;;;5042018;28;20216;-79
2023/03/08 06:18:22;;;;;;;9.50;9.20;;;3.30;99.90;;;;;;5038166;28;20273;-79
2023/03/08 06:21:04;;;;;;;9.67;9.37;;;3.30;99.90;;;;;;5038642;28;20236;-80
2023/03/08 06:23:40;;;;;;;9.33;9.03;;;3.30;99.90;;;;;;5034196;28;20221;-78
2023/03/08 06:26:10;;;;;;;9.53;9.23;;;3.30;99.90;;;;;;5025506;28;20228;-81
2023/03/08 06:28:39;;;;;;;9.40;9.10;;;3.30;99.90;;;;;;5040655;28;20250;-80
2023/03/08 06:31:16;;;;;;;8.90;8.70;;;3.30;99.90;;;;;;5040942;28;20247;-80
2023/03/08 06:33:46;;;;;;;9.03;8.80;;;3.40;99.90;;;;;;5030949;28;20239;-79
2023/03/08 06:36:16;;;;;;;9.20;8.90;;;3.50;99.90;;;;;;5041102;28;20212;-79
2023/03/08 06:38:53;;;;;;;9.20;8.90;;;3.50;99.90;;;;;;5027515;28;20225;-81
2023/03/08 07:28:17;;;;;;;9.30;9.00;;;3.40;99.90;;;;;;4854281;29;20247;-87
2023/03/08 07:38:59;;;;;;;9.67;9.37;;;3.40;99.90;;;;;;4893135;29;20256;-87
2023/03/08 08:04:47;;;;;;;9.40;9.10;;;3.60;99.90;;;;;;4805431;29;20223;-82
2023/03/08 08:17:18;;;;;;;9.43;9.13;;;3.70;99.90;;;;;;4959688;28;20334;-82
2023/03/08 08:29:25;;;;;;;10.43;10.13;;;3.30;99.90;;;;;;5023838;28;20232;-82
2023/03/08 08:51:40;;;;;;;9.80;9.50;;;3.50;99.90;;;;;;4848459;29;20229;-83
2023/03/08 09:01:38;;;;;;;9.63;9.33;;;3.30;99.90;;;;;;5005317;23;20271;-81
2023/03/08 09:04:06;;;;;;;9.90;9.60;;;3.20;99.90;;;;;;5045428;28;20227;-80
2023/03/08 09:06:35;;;;;;;10.17;9.87;;;3.30;99.90;;;;;;5043388;28;20238;-79
2023/03/08 09:09:05;;;;;;;9.60;9.30;;;3.40;99.90;;;;;;5042292;28;20318;-81
2023/03/08 09:11:34;;;;;;;9.90;9.60;;;3.70;99.90;;;;;;5043868;28;20235;-81
2023/03/08 09:14:03;;;;;;;9.97;9.67;;;3.60;99.90;;;;;;5030822;28;20246;-81
2023/03/08 09:16:35;;;;;;;10.30;10.00;;;3.50;99.90;;;;;;5038614;28;20227;-81
2023/03/08 09:19:04;;;;;;;10.40;10.10;;;3.40;99.90;;;;;;5043129;28;20310;-82
2023/03/08 09:21:33;;;;;;;10.53;10.23;;;3.30;99.90;;;;;;5043027;28;20275;-81
2023/03/08 09:24:02;;;;;;;10.80;10.50;;;3.30;99.90;;;;;;5036287;28;20235;-79
2023/03/08 09:26:30;;;;;;;10.70;10.40;;;3.10;99.90;;;;;;5045604;28;20294;-82
2023/03/08 09:29:03;;;;;;;11.00;10.70;;;2.90;99.90;;;;;;5044202;28;20230;-80
2023/03/08 09:31:32;;;;;;;10.80;10.50;;;2.80;99.90;;;;;;5044192;28;20243;-80
2023/03/08 09:34:11;;;;;;;10.73;10.43;;;2.70;99.90;;;;;;5044001;28;20235;-80
2023/03/08 09:36:39;;;;;;;10.40;10.10;;;2.70;99.90;;;;;;5045480;28;20231;-80
2023/03/08 09:39:07;;;;;;;10.20;9.90;;;2.70;99.90;;;;;;5046625;28;20219;-81
2023/03/08 09:41:54;;;;;;;10.30;10.00;;;2.60;99.90;;;;;;5046517;28;20239;-80
2023/03/08 09:44:49;;;;;;;9.77;9.47;;;2.50;99.90;;;;;;5040329;28;20232;-79
2023/03/08 09:47:45;;;;;;;9.80;9.50;;;2.50;99.90;;;;;;5035669;28;20246;-78
2023/03/08 09:50:32;;;;;;;9.77;9.47;;;2.40;99.90;;;;;;5045526;28;20236;-80
2023/03/08 09:53:11;;;;;;;9.30;9.00;;;2.30;99.90;;;;;;5046310;28;20228;-79
2023/03/08 09:55:49;;;;;;;9.07;8.77;;;2.30;99.90;;;;;;5045595;28;20265;-81
2023/03/08 09:58:28;;;;;;;9.10;8.80;;;2.30;99.90;;;;;;5047807;28;20294;-80
2023/03/08 10:01:00;;;;;;;9.07;8.77;;;2.30;99.90;;;;;;5048661;28;20243;-80
2023/03/08 10:06:53;;;;;;;9.07;8.77;;;2.20;99.90;;;;;;5053741;28;20239;-79
2023/03/08 10:09:35;;;;;;;8.87;8.63;;;2.10;99.90;;;;;;5052879;28;20242;-80
2023/03/08 10:12:18;;;;;;;9.20;8.90;;;2.10;99.90;;;;;;5053881;28;20228;-79
2023/03/08 10:14:53;;;;;;;8.53;8.33;;;2.10;99.90;;;;;;5056579;28;20223;-79
2023/03/08 10:17:24;;;;;;;9.10;8.80;;;2.10;99.90;;;;;;5055143;28;20223;-80
2023/03/08 10:20:02;;;;;;;9.20;8.90;;;2.10;99.90;;;;;;5055119;28;20291;-79
2023/03/08 10:22:41;;;;;;;8.80;8.60;;;2.10;99.90;;;;;;5054689;28;20243;-79
2023/03/08 10:25:29;;;;;;;9.13;8.83;;;2.10;99.90;;;;;;5051582;28;20232;-79
2023/03/08 10:27:59;;;;;;;8.80;8.60;;;2.10;99.90;;;;;;5048803;28;21063;-79
2023/03/08 10:30:35;;;;;;;8.70;8.50;;;2.10;99.90;;;;;;5049316;28;20246;-80
2023/03/08 10:33:09;;;;;;;8.63;8.43;;;2.10;99.90;;;;;;5050555;28;20235;-80
2023/03/08 10:35:42;;;;;;;8.87;8.60;;;2.10;99.90;;;;;;5048966;28;20241;-80
2023/03/08 10:38:20;;;;;;;8.97;8.67;;;2.10;99.90;;;;;;5050286;28;20283;-80
2023/03/08 10:40:49;;;;;;;9.00;8.70;;;2.20;99.90;;;;;;5050633;28;20231;-80
2023/03/08 10:43:27;;;;;;;8.70;8.50;;;2.20;99.90;;;;;;5049995;28;20366;-79
2023/03/08 10:46:05;;;;;;;8.60;8.40;;;2.20;99.90;;;;;;5051282;28;20231;-80
2023/03/08 10:48:36;;;;;;;9.00;8.70;;;2.10;99.90;;;;;;5051227;28;20242;-80
2023/03/08 10:51:06;;;;;;;8.70;8.50;;;2.10;99.90;;;;;;5048533;28;20251;-80
2023/03/08 10:53:43;;;;;;;8.70;8.50;;;2.20;99.90;;;;;;5049556;28;20287;-80
2023/03/08 10:56:26;;;;;;;8.50;8.30;;;2.10;99.90;;;;;;5049406;28;20242;-80
2023/03/08 10:59:00;;;;;;;8.50;8.30;;;2.10;99.90;;;;;;5048122;28;20298;-80
2023/03/08 11:01:30;;;;;;;8.93;8.63;;;2.10;99.90;;;;;;5046939;28;20249;-79
2023/03/08 11:04:16;;;;;;;9.10;8.80;;;2.10;99.90;;;;;;5051020;28;20665;-82
2023/03/08 11:06:45;;;;;;;8.70;8.50;;;2.20;99.90;;;;;;5049490;28;20290;-81
2023/03/08 11:12:06;;;;;;;8.80;8.50;;;2.20;99.90;;;;;;5187805;27;20538;-82
2023/03/08 11:14:34;;;;;;;9.00;8.70;;;2.20;99.90;;;;;;5167223;27;20223;-81
2023/03/08 11:17:18;;;;;;;8.90;8.70;;;2.20;99.90;;;;;;5166972;27;20305;-79
2023/03/08 11:19:59;;;;;;;8.40;8.20;;;2.30;99.90;;;;;;5166939;27;20223;-81
2023/03/08 11:22:53;;;;;;;8.17;7.97;;;2.30;99.90;;;;;;5166275;27;20277;-82
2023/03/08 11:25:48;;;;;;;8.30;8.10;;;2.30;99.90;;;;;;5165447;27;20259;-82
2023/03/08 11:29:01;;;;;;;8.00;7.80;;;2.40;99.90;;;;;;5164425;27;20238;-82
2023/03/08 11:31:40;;;;;;;8.30;8.10;;;2.40;99.90;;;;;;5162852;27;20233;-81
2023/03/08 11:34:53;;;;;;;8.07;7.87;;;2.40;99.90;;;;;;5156067;27;20292;-81
2023/03/08 11:37:32;;;;;;;8.20;8.00;;;2.50;99.90;;;;;;5137592;27;20307;-82
2023/03/08 11:40:16;;;;;;;8.30;8.10;;;2.50;99.90;;;;;;5146740;27;20227;-81
2023/03/08 11:42:58;;;;;;;8.37;8.17;;;2.60;99.90;;;;;;5155810;27;20244;-82
2023/03/08 11:45:37;;;;;;;8.67;8.47;;;2.70;99.90;;;;;;5156528;27;20284;-80
2023/03/08 11:48:46;;;;;;;9.00;8.70;;;2.70;99.90;;;;;;5143859;27;20255;-81
2023/03/08 11:51:27;;;;;;;8.90;8.60;;;2.70;99.90;;;;;;5138566;27;20293;-81
2023/03/08 11:54:13;;;;;;;8.90;8.60;;;2.80;99.90;;;;;;5142217;27;20267;-81
2023/03/08 11:56:52;;;;;;;9.07;8.77;;;2.80;99.90;;;;;;5162364;27;20231;-81
2023/03/08 11:59:31;;;;;;;8.87;8.57;;;2.80;99.90;;;;;;5162481;27;20279;-80
2023/03/08 12:02:19;;;;;;;8.47;8.27;;;2.90;99.90;;;;;;5161345;27;20249;-79
2023/03/08 12:04:57;;;;;;;8.87;8.57;;;2.90;99.90;;;;;;5162105;27;20259;-79
2023/03/08 12:07:36;;;;;;;8.70;8.50;;;2.90;99.90;;;;;;5161323;27;20224;-81
2023/03/08 12:10:16;;;;;;;8.60;8.40;;;3.00;99.90;;;;;;5159474;27;20254;-82
2023/03/08 12:12:49;;;;;;;8.90;8.60;;;3.00;99.90;;;;;;5163077;27;20224;-80
2023/03/08 12:15:30;;;;;;;8.50;8.30;;;3.10;99.90;;;;;;5161604;27;20216;-80
2023/03/08 12:18:08;;;;;;;8.60;8.40;;;3.10;99.90;;;;;;5162419;27;20224;-80
2023/03/08 12:20:41;;;;;;;8.50;8.30;;;3.20;99.90;;;;;;5163089;27;21028;-80
2023/03/08 12:23:24;;;;;;;8.50;8.30;;;3.20;99.90;;;;;;5150313;27;20716;-81
2023/03/08 12:26:03;;;;;;;9.00;8.70;;;3.30;99.90;;;;;;5148402;27;20253;-81
2023/03/08 12:28:35;;;;;;;8.93;8.63;;;3.40;99.90;;;;;;5148755;27;20236;-80
2023/03/08 12:31:21;;;;;;;8.80;8.50;;;3.40;99.90;;;;;;5147297;27;20238;-81
2023/03/08 12:33:58;;;;;;;8.83;8.53;;;3.40;99.90;;;;;;5147644;27;20220;-82
2023/03/08 12:36:38;;;;;;;8.30;8.10;;;3.50;99.90;;;;;;5148784;27;20227;-81
2023/03/08 12:39:15;;;;;;;8.30;8.10;;;3.60;99.90;;;;;;5148547;27;20264;-81
2023/03/08 12:41:43;;;;;;;9.10;8.80;;;3.60;99.90;;;;;;5148009;27;20253;-82
2023/03/08 12:44:31;;;;;;;8.60;8.40;;;3.60;99.90;;;;;;5146942;27;20274;-81
2023/03/08 12:47:02;;;;;;;8.40;8.20;;;3.70;99.90;;;;;;5148688;27;20259;-81
2023/03/08 12:49:38;;;;;;;8.20;8.00;;;3.70;99.90;;;;;;5148708;27;20228;-81
2023/03/08 12:52:33;;;;;;;8.47;8.27;;;3.80;99.90;;;;;;5150742;27;20232;-81
2023/03/08 12:55:07;;;;;;;8.67;8.47;;;3.80;99.90;;;;;;5148671;27;20228;-83
2023/03/08 12:57:41;;;;;;;8.80;8.50;;;3.80;99.90;;;;;;5147244;27;20224;-83
2023/03/08 13:00:31;;;;;;;8.67;8.40;;;3.80;99.90;;;;;;5157928;27;20236;-83
2023/03/08 13:03:06;;;;;;;8.60;8.40;;;3.90;99.90;;;;;;5154693;27;20236;-83
2023/03/08 13:05:46;;;;;;;8.30;8.10;;;4.00;99.90;;;;;;5156330;27;20293;-82
2023/03/08 13:08:32;;;;;;;8.17;7.97;;;4.00;99.90;;;;;;5155688;27;20228;-82
2023/03/08 13:11:10;;;;;;;7.93;7.73;;;4.20;99.90;;;;;;5156113;27;20299;-82
2023/03/08 13:13:49;;;;;;;8.47;8.27;;;4.30;99.90;;;;;;5153615;27;20242;-82
2023/03/08 13:16:31;;;;;;;8.10;7.90;;;4.40;99.90;;;;;;5150621;27;20255;-81
2023/03/08 13:19:21;;;;;;;8.30;8.10;;;4.40;99.90;;;;;;5150397;27;20263;-82
2023/03/08 13:22:03;;;;;;;8.20;8.00;;;4.50;99.90;;;;;;5149069;27;20331;-81
2023/03/08 13:24:47;;;;;;;8.50;8.30;;;4.60;99.90;;;;;;5148647;27;20236;-80
2023/03/08 13:27:36;;;;;;;8.17;7.97;;;4.80;99.90;;;;;;5148235;27;20227;-81
2023/03/08 13:30:22;;;;;;;7.97;7.77;;;4.90;99.90;;;;;;5148704;27;20315;-82
2023/03/08 13:32:51;;;;;;;8.17;7.97;;;5.00;99.90;;;;;;5148198;27;20228;-81
2023/03/08 13:35:21;;;;;;;8.10;7.90;;;5.10;99.90;;;;;;5148782;27;20259;-81
2023/03/08 13:38:01;;;;;;;8.10;7.90;;;5.20;99.90;;;;;;5148492;27;20228;-81
2023/03/08 13:40:30;;;;;;;8.10;7.90;;;5.20;99.90;;;;;;5147181;27;20236;-81
2023/03/08 13:43:01;;;;;;;8.00;7.80;;;5.30;99.90;;;;;;5148188;27;20255;-81
2023/03/08 13:45:29;;;;;;;8.00;7.80;;;5.30;99.90;;;;;;5148625;27;20238;-81
2023/03/08 13:47:59;;;;;;;7.80;7.60;;;5.40;99.90;;;;;;5149102;27;20263;-81
2023/03/08 13:50:34;;;;;;;8.13;7.93;;;5.50;99.90;;;;;;5152435;27;20304;-81
2023/03/08 13:53:24;;;;;;;8.00;7.80;;;5.60;99.90;;;;;;5158666;27;20287;-80
2023/03/08 13:55:55;;;;;;;7.90;7.70;;;5.70;99.90;;;;;;5151068;27;20311;-81
2023/03/08 13:58:31;;;;;;;8.07;7.87;;;5.70;99.90;;;;;;5149714;27;20216;-81
2023/03/08 14:01:02;;;;;;;8.07;7.87;;;5.80;99.90;;;;;;5150590;27;21099;-80
2023/03/08 14:03:32;;;;;;;8.10;7.90;;;6.00;99.90;;;;;;5150235;27;20274;-79
2023/03/08 14:05:59;;;;;;;8.23;8.03;;;6.10;99.90;;;;;;5148975;27;20228;-80
2023/03/08 14:08:29;;;;;;;8.47;8.27;;;6.20;99.90;;;;;;5131998;27;20229;-80
2023/03/08 14:11:02;;;;;;;8.60;8.40;;;6.30;99.90;;;;;;5129003;27;20240;-80
2023/03/08 14:13:40;;;;;;;8.77;8.57;;;6.40;99.90;;;;;;5129074;27;20235;-79
2023/03/08 14:16:09;;;;;;;8.97;8.70;;;6.50;99.90;;;;;;5130372;27;20225;-80
2023/03/08 14:18:43;;;;;;;8.40;8.20;;;6.50;99.90;;;;;;5128660;27;20287;-80
2023/03/08 14:21:16;;;;;;;8.30;8.10;;;6.60;99.90;;;;;;5126545;27;20270;-81
2023/03/08 14:23:52;;;;;;;8.70;8.50;;;6.70;99.90;;;;;;5126675;27;20216;-80
2023/03/08 14:26:32;;;;;;;8.30;8.10;;;6.80;99.90;;;;;;5140392;27;20270;-80
2023/03/08 14:29:18;;;;;;;7.93;7.73;;;6.80;99.90;;;;;;5138009;27;20220;-79
2023/03/08 14:31:56;;;;;;;8.30;8.10;;;6.90;99.90;;;;;;5129000;27;20232;-81
2023/03/08 14:34:26;;;;;;;8.17;7.97;;;7.00;99.90;;;;;;5125967;27;20248;-80
2023/03/08 14:37:04;;;;;;;8.30;8.10;;;7.00;99.90;;;;;;5127135;27;20284;-81
2023/03/08 14:39:42;;;;;;;8.50;8.30;;;7.10;99.90;;;;;;5127095;27;20212;-80
2023/03/08 14:42:19;;;;;;;8.53;8.33;;;7.10;99.90;;;;;;5126231;28;20229;-81
2023/03/08 14:44:52;;;;;;;8.50;8.30;;;7.20;99.90;;;;;;5125796;27;20232;-81
2023/03/08 14:47:28;;;;;;;8.43;8.23;;;7.20;99.90;;;;;;5125429;27;20232;-80
2023/03/08 14:50:07;;;;;;;8.57;8.37;;;7.30;99.90;;;;;;5125162;27;20228;-80
2023/03/08 14:52:44;;;;;;;8.70;8.50;;;7.30;99.90;;;;;;5124444;27;20319;-81
2023/03/08 14:55:32;;;;;;;8.77;8.57;;;7.40;99.90;;;;;;5126584;27;20235;-81
2023/03/08 14:58:03;;;;;;;8.37;8.17;;;7.50;99.90;;;;;;5125685;27;20264;-82
2023/03/08 15:00:39;;;;;;;8.50;8.30;;;7.60;99.90;;;;;;5125978;27;20251;-81
2023/03/08 15:03:09;;;;;;;8.70;8.50;;;7.60;99.90;;;;;;5125528;27;20238;-80
2023/03/08 15:05:38;;;;;;;8.50;8.30;;;7.70;99.90;;;;;;5126717;27;20319;-81
2023/03/08 15:08:13;;;;;;;8.23;8.03;;;7.80;99.90;;;;;;5125795;27;20293;-80
2023/03/08 15:10:45;;;;;;;8.33;8.13;;;8.00;99.90;;;;;;5126135;27;20224;-81
2023/03/08 15:13:16;;;;;;;8.70;8.50;;;8.10;99.90;;;;;;5140228;27;20212;-82
2023/03/08 15:15:46;;;;;;;8.83;8.63;;;8.20;99.90;;;;;;5139372;27;20239;-81
2023/03/08 15:18:13;;;;;;;8.90;8.60;;;8.30;99.90;;;;;;5147736;27;20248;-82
2023/03/08 15:20:48;;;;;;;8.70;8.50;;;8.40;99.90;;;;;;5149667;27;20239;-82
2023/03/08 15:23:21;;;;;;;9.07;8.77;;;8.50;99.90;;;;;;5146773;27;20281;-81
2023/03/08 15:25:53;;;;;;;8.90;8.70;;;8.60;99.90;;;;;;5151183;27;20255;-82
2023/03/08 15:28:23;;;;;;;9.00;8.70;;;8.70;99.90;;;;;;5150698;27;20254;-82
2023/03/08 15:30:53;;;;;;;8.93;8.63;;;8.80;99.90;;;;;;5148017;27;20224;-82
2023/03/08 15:33:21;;;;;;;9.13;8.83;;;8.90;99.90;;;;;;5148515;27;20204;-81
2023/03/08 15:35:49;;;;;;;8.90;8.63;;;8.90;99.90;;;;;;5131626;27;20244;-80
2023/03/08 15:38:19;;;;;;;8.97;8.67;;;9.00;99.90;;;;;;5136397;27;20224;-82
2023/03/08 15:40:47;;;;;;;8.60;8.40;;;9.00;99.90;;;;;;5139058;27;20224;-82
2023/03/08 15:43:19;;;;;;;8.70;8.50;;;9.10;99.90;;;;;;5136723;27;20332;-81
2023/03/08 15:45:47;;;;;;;8.37;8.17;;;9.10;99.90;;;;;;5131208;27;20300;-81
2023/03/08 15:48:17;;;;;;;8.30;8.10;;;9.10;99.90;;;;;;5129303;27;20282;-81
2023/03/08 15:50:45;;;;;;;8.40;8.20;;;9.10;99.90;;;;;;5130438;27;20272;-80